Tenstrike, Minnesota
Current Conditions -  °F | °C
As of 8:51 PM on Friday 19 Dec 2014 (Local Time) from KBJI Reporting Station
Light Snow Light Snow  
Wind Chill: 17°   Ceiling: 1800
Heat Index: 25°   Visibility: 1.7mi
Dew Point: 24°   Wind: 7mph
Humidity: 96%   Direction: 140°SE
Pressure: 30.03"   Gusts: NA
Location:  47.66°N, 94.67°W
Report Text: KBJI 200251Z AUTO 14006KT 1 3/4SM -SN BKN018 OVC024 M04/M05 A3003 RMK AO2 T10411046
Loading
Personal Weather Stations






























Interactive Weather Map New forecast layout! Learn more

10-Day Weather Forecast

Advertisements
Track Severe Weather on mobile